Time;durP1;ratioP1;P1;durP2;ratioP2;P2;SDS_P1;SDS_P2;PMS_P1;PMS_P2;Temp;Humidity;BMP_temperature;BMP_pressure;BME280_temperature;BME280_humidity;BME280_pressure;Samples;Min_cycle;Max_cycle;Signal;HPM_P1;HPM_P2
2023/07/29 00:00:56;;;;;;;9.38;3.35;;;18.00;99.90;;;;;;5052754;28;20128;-68
2023/07/29 00:03:22;;;;;;;9.82;2.92;;;18.00;99.90;;;;;;5052211;28;20033;-66
2023/07/29 00:05:48;;;;;;;11.77;2.85;;;18.00;99.90;;;;;;5051669;28;20515;-68
2023/07/29 00:08:14;;;;;;;8.63;2.95;;;18.00;99.90;;;;;;5051739;28;20029;-67
2023/07/29 00:10:39;;;;;;;9.23;3.00;;;18.10;99.90;;;;;;5051943;28;20048;-68
2023/07/29 00:13:05;;;;;;;13.57;3.83;;;18.10;99.90;;;;;;5052307;28;20675;-68
2023/07/29 00:15:31;;;;;;;9.95;2.22;;;18.20;99.90;;;;;;5053243;28;20041;-67
2023/07/29 00:17:57;;;;;;;9.98;2.78;;;18.20;99.90;;;;;;5052297;28;20017;-67
2023/07/29 00:20:22;;;;;;;8.98;2.60;;;18.20;99.90;;;;;;5052819;28;20028;-67
2023/07/29 00:22:53;;;;;;;10.57;3.08;;;18.20;99.90;;;;;;5053262;28;20067;-67
2023/07/29 00:25:19;;;;;;;7.95;2.00;;;18.20;99.90;;;;;;5051842;28;20400;-68
2023/07/29 00:27:45;;;;;;;8.23;2.22;;;18.20;99.90;;;;;;5052834;28;20024;-67
2023/07/29 00:30:11;;;;;;;6.95;2.00;;;18.20;99.90;;;;;;5053045;28;20029;-68
2023/07/29 00:32:37;;;;;;;5.80;1.90;;;18.20;99.90;;;;;;5052754;28;20040;-67
2023/07/29 00:35:03;;;;;;;8.63;2.47;;;18.10;99.90;;;;;;5052756;28;20037;-67
2023/07/29 00:37:30;;;;;;;7.53;2.90;;;18.10;99.90;;;;;;5053281;28;20029;-67
2023/07/29 00:39:55;;;;;;;12.38;2.58;;;18.20;99.90;;;;;;5052767;28;20025;-67
2023/07/29 00:42:21;;;;;;;10.68;2.83;;;18.20;99.90;;;;;;5051419;28;20060;-68
2023/07/29 00:44:47;;;;;;;6.90;2.33;;;18.20;99.90;;;;;;5051334;28;20412;-67
2023/07/29 00:47:13;;;;;;;10.35;3.17;;;18.20;99.90;;;;;;5052192;28;20020;-68
2023/07/29 00:49:39;;;;;;;12.32;4.20;;;18.20;99.90;;;;;;5051471;28;20100;-67
2023/07/29 00:52:05;;;;;;;8.70;2.67;;;18.20;99.90;;;;;;5052422;28;20135;-67
2023/07/29 00:54:30;;;;;;;10.98;2.70;;;18.20;99.90;;;;;;5052494;28;20443;-66
2023/07/29 00:56:56;;;;;;;11.75;4.07;;;18.20;99.90;;;;;;5052159;28;20209;-67
2023/07/29 00:59:22;;;;;;;6.45;2.05;;;18.10;99.90;;;;;;5052870;28;20036;-67
2023/07/29 01:01:48;;;;;;;9.07;3.03;;;18.10;99.90;;;;;;5052977;28;20036;-68
2023/07/29 01:04:14;;;;;;;8.68;2.50;;;18.10;99.90;;;;;;5052451;28;20038;-68
2023/07/29 01:06:58;;;;;;;14.10;5.15;;;18.00;99.90;;;;;;5052780;28;20037;-68
2023/07/29 01:09:57;;;;;;;11.57;4.57;;;18.00;99.90;;;;;;5052762;28;20116;-68
2023/07/29 01:12:35;;;;;;;14.40;5.35;;;18.00;99.90;;;;;;5043649;28;20041;-67
2023/07/29 01:15:09;;;;;;;17.42;6.80;;;17.90;99.90;;;;;;5052421;28;20404;-67
2023/07/29 01:17:55;;;;;;;10.05;4.30;;;17.90;99.90;;;;;;5052647;28;20052;-68
2023/07/29 01:20:23;;;;;;;13.98;3.75;;;17.90;99.90;;;;;;5052456;28;20032;-68
2023/07/29 01:22:49;;;;;;;12.02;3.65;;;17.90;99.90;;;;;;5052629;28;20086;-67
2023/07/29 01:25:14;;;;;;;10.60;3.80;;;17.80;99.90;;;;;;5052033;28;20045;-68
2023/07/29 01:27:43;;;;;;;10.98;3.90;;;17.80;99.90;;;;;;5052438;28;20036;-67
2023/07/29 01:30:09;;;;;;;14.68;5.28;;;17.80;99.90;;;;;;5051915;28;20037;-67
2023/07/29 01:32:40;;;;;;;9.95;4.03;;;17.80;99.90;;;;;;5052108;28;20067;-67
2023/07/29 01:35:28;;;;;;;14.68;3.30;;;17.80;99.90;;;;;;5052425;28;20031;-67
2023/07/29 01:38:13;;;;;;;11.45;3.50;;;17.90;99.90;;;;;;5052094;28;20519;-67
2023/07/29 01:40:40;;;;;;;11.35;3.63;;;17.90;99.90;;;;;;5052307;28;20472;-67
2023/07/29 01:43:08;;;;;;;9.57;3.38;;;17.80;99.90;;;;;;5051901;28;20095;-68
2023/07/29 01:45:37;;;;;;;9.38;3.10;;;17.80;99.90;;;;;;5051729;28;20052;-68
2023/07/29 01:48:06;;;;;;;9.55;3.20;;;17.90;99.90;;;;;;5051666;28;20078;-68
2023/07/29 01:50:32;;;;;;;12.93;3.47;;;17.80;99.90;;;;;;5051903;28;20381;-67
2023/07/29 01:52:58;;;;;;;14.27;4.63;;;17.90;99.90;;;;;;5052202;28;20476;-67
2023/07/29 01:55:24;;;;;;;12.25;3.40;;;17.90;99.90;;;;;;5052075;28;20036;-68
2023/07/29 01:57:51;;;;;;;10.88;3.17;;;17.90;99.90;;;;;;5052098;28;20029;-67
2023/07/29 02:00:16;;;;;;;11.05;3.63;;;17.90;99.90;;;;;;5051857;28;20056;-68
2023/07/29 02:02:42;;;;;;;11.93;3.10;;;17.90;99.90;;;;;;5052090;28;20063;-68
2023/07/29 02:05:07;;;;;;;9.57;3.08;;;17.90;99.90;;;;;;5051916;28;20397;-68
2023/07/29 02:07:33;;;;;;;8.98;3.40;;;17.80;99.90;;;;;;5051956;28;20094;-67
2023/07/29 02:09:59;;;;;;;12.00;3.67;;;17.80;99.90;;;;;;5052267;28;20053;-68
2023/07/29 02:12:24;;;;;;;6.75;3.10;;;17.80;99.90;;;;;;5051680;28;20028;-68
2023/07/29 02:14:50;;;;;;;12.90;3.15;;;17.90;99.90;;;;;;5051504;28;20025;-67
2023/07/29 02:17:15;;;;;;;12.75;3.85;;;17.80;99.90;;;;;;5051922;28;20147;-67
2023/07/29 02:19:41;;;;;;;6.60;2.65;;;17.80;99.90;;;;;;5051808;28;20025;-67
2023/07/29 02:22:07;;;;;;;10.43;3.08;;;17.80;99.90;;;;;;5051592;28;20029;-68
2023/07/29 02:24:32;;;;;;;11.25;3.58;;;17.80;99.90;;;;;;5051922;28;20031;-68
2023/07/29 02:26:58;;;;;;;11.18;3.50;;;17.80;99.90;;;;;;5051560;28;20060;-67
2023/07/29 02:29:24;;;;;;;11.52;3.33;;;17.90;99.90;;;;;;5051621;28;20032;-67
2023/07/29 02:31:50;;;;;;;8.40;3.05;;;18.00;99.90;;;;;;5051637;28;20108;-67
2023/07/29 02:34:16;;;;;;;8.52;2.50;;;18.00;99.90;;;;;;5051467;28;20123;-68
2023/07/29 02:36:41;;;;;;;10.18;3.20;;;18.00;99.90;;;;;;5051797;28;20026;-68
2023/07/29 02:39:07;;;;;;;10.02;3.15;;;18.10;99.90;;;;;;5051514;28;20381;-68
2023/07/29 02:41:32;;;;;;;11.77;3.17;;;18.10;99.90;;;;;;5051383;28;20037;-68
2023/07/29 02:43:59;;;;;;;12.57;2.78;;;18.10;99.90;;;;;;5054095;28;20037;-68
2023/07/29 02:46:25;;;;;;;11.25;2.75;;;18.10;99.90;;;;;;5055344;28;20056;-67
2023/07/29 02:48:51;;;;;;;10.18;3.00;;;18.10;99.90;;;;;;5055541;28;20373;-68
2023/07/29 02:51:16;;;;;;;14.95;3.20;;;18.10;99.90;;;;;;5055295;28;20531;-67
2023/07/29 02:53:42;;;;;;;13.85;3.45;;;18.10;99.90;;;;;;5055462;28;20422;-67
2023/07/29 02:56:09;;;;;;;11.45;2.70;;;18.10;99.90;;;;;;5055273;28;20025;-67
2023/07/29 02:58:36;;;;;;;10.82;3.05;;;18.10;99.90;;;;;;5055006;28;20473;-67
2023/07/29 03:01:03;;;;;;;7.60;3.05;;;18.00;99.90;;;;;;5055180;28;20029;-67
2023/07/29 03:03:29;;;;;;;9.60;2.85;;;18.00;99.90;;;;;;5055169;28;20063;-68
2023/07/29 03:06:03;;;;;;;12.05;2.65;;;18.00;99.90;;;;;;5054991;28;20033;-67
2023/07/29 03:08:29;;;;;;;13.13;3.30;;;18.00;99.90;;;;;;5054801;28;20356;-68
2023/07/29 03:10:55;;;;;;;7.78;2.55;;;18.00;99.90;;;;;;5055081;28;20033;-68
2023/07/29 03:13:21;;;;;;;11.38;2.95;;;18.00;99.90;;;;;;5054707;28;20104;-67
2023/07/29 03:15:47;;;;;;;9.27;2.50;;;18.10;99.90;;;;;;5054957;28;20108;-67
2023/07/29 03:18:12;;;;;;;13.98;2.88;;;18.00;99.90;;;;;;5054856;28;20028;-67
2023/07/29 03:20:38;;;;;;;11.23;2.65;;;18.00;99.90;;;;;;5054638;28;20043;-67
2023/07/29 03:23:03;;;;;;;9.65;3.10;;;18.00;99.90;;;;;;5054845;28;20036;-67
2023/07/29 03:25:29;;;;;;;15.10;2.90;;;18.00;99.90;;;;;;5054431;28;20036;-67
2023/07/29 03:27:55;;;;;;;12.30;3.10;;;18.10;99.90;;;;;;5054731;28;20028;-66
2023/07/29 03:30:21;;;;;;;9.65;2.88;;;18.10;99.90;;;;;;5054419;28;20021;-67
2023/07/29 03:32:47;;;;;;;13.88;3.40;;;18.20;99.90;;;;;;5054596;28;20025;-67
2023/07/29 03:35:13;;;;;;;13.82;3.17;;;18.20;99.90;;;;;;5054534;28;20112;-67
2023/07/29 03:37:39;;;;;;;11.15;2.92;;;18.20;99.90;;;;;;5054342;28;20061;-67
2023/07/29 03:40:06;;;;;;;8.70;2.88;;;18.30;99.90;;;;;;5054115;28;20029;-68
2023/07/29 03:42:32;;;;;;;10.48;2.85;;;18.30;99.90;;;;;;5053687;28;20128;-68
2023/07/29 03:44:57;;;;;;;12.75;2.83;;;18.30;99.90;;;;;;5053736;28;20143;-67
2023/07/29 03:47:23;;;;;;;9.52;3.05;;;18.40;99.90;;;;;;5054319;28;20021;-68
2023/07/29 03:49:48;;;;;;;14.38;3.47;;;18.40;99.90;;;;;;5054289;28;20032;-67
2023/07/29 03:52:14;;;;;;;8.85;2.72;;;18.40;99.90;;;;;;5052779;28;20050;-67
2023/07/29 03:54:40;;;;;;;10.25;2.40;;;18.40;99.90;;;;;;5053802;28;20068;-66
2023/07/29 03:57:05;;;;;;;11.07;2.80;;;18.40;99.90;;;;;;5053870;28;20155;-66
2023/07/29 03:59:31;;;;;;;10.35;2.78;;;18.40;99.90;;;;;;5054046;28;20036;-67
2023/07/29 04:01:57;;;;;;;12.02;3.30;;;18.40;99.90;;;;;;5054150;28;20021;-67
2023/07/29 04:04:22;;;;;;;12.07;2.60;;;18.50;99.90;;;;;;5054245;28;20171;-67
2023/07/29 04:06:48;;;;;;;13.05;2.88;;;18.50;99.90;;;;;;5054144;28;20120;-68
2023/07/29 04:09:13;;;;;;;10.90;2.80;;;18.50;99.90;;;;;;5053926;28;20021;-67
2023/07/29 04:11:39;;;;;;;10.68;2.88;;;18.50;99.90;;;;;;5053747;28;20031;-67
2023/07/29 04:14:04;;;;;;;9.90;2.78;;;18.50;99.90;;;;;;5054148;28;20033;-67
2023/07/29 04:16:30;;;;;;;10.75;2.90;;;18.50;99.90;;;;;;5053818;28;20060;-67
2023/07/29 04:18:56;;;;;;;9.00;2.50;;;18.50;99.90;;;;;;5053985;28;20025;-68
2023/07/29 04:21:21;;;;;;;11.73;2.40;;;18.50;99.90;;;;;;5053912;28;20051;-68
2023/07/29 04:23:47;;;;;;;7.57;2.22;;;18.50;99.90;;;;;;5053883;28;20081;-67
2023/07/29 04:26:13;;;;;;;9.10;2.47;;;18.50;99.90;;;;;;5053587;28;20082;-67
2023/07/29 04:28:38;;;;;;;9.05;2.33;;;18.50;99.90;;;;;;5053683;28;20033;-68
2023/07/29 04:31:04;;;;;;;7.18;2.40;;;18.50;99.90;;;;;;5053524;28;20024;-67
2023/07/29 04:33:30;;;;;;;11.43;2.42;;;18.50;99.90;;;;;;5053636;28;20025;-68
2023/07/29 04:35:56;;;;;;;12.90;2.55;;;18.50;99.90;;;;;;5053682;28;20037;-68
2023/07/29 04:38:22;;;;;;;11.93;2.35;;;18.50;99.90;;;;;;5053276;28;20036;-67
2023/07/29 04:40:50;;;;;;;8.48;2.45;;;18.50;99.90;;;;;;5053146;28;20468;-69
2023/07/29 04:43:16;;;;;;;10.70;2.35;;;18.60;99.90;;;;;;5053308;28;20539;-68
2023/07/29 04:45:45;;;;;;;10.43;2.83;;;18.60;99.90;;;;;;5053132;28;20049;-68
2023/07/29 04:48:11;;;;;;;11.82;2.67;;;18.60;99.90;;;;;;5053566;28;20056;-67
2023/07/29 04:50:36;;;;;;;10.38;2.40;;;18.70;99.90;;;;;;5053296;28;20024;-68
2023/07/29 04:53:02;;;;;;;7.32;2.92;;;18.70;99.90;;;;;;5053122;28;20029;-67
2023/07/29 04:55:27;;;;;;;11.57;2.38;;;18.80;99.90;;;;;;5052333;28;20056;-67
2023/07/29 04:57:53;;;;;;;7.32;2.50;;;18.80;99.90;;;;;;5052987;28;20025;-68
2023/07/29 05:00:18;;;;;;;11.43;2.92;;;18.90;99.90;;;;;;5053099;28;20117;-68
2023/07/29 05:02:44;;;;;;;14.23;2.33;;;18.90;99.90;;;;;;5052630;28;20377;-68
2023/07/29 05:05:09;;;;;;;7.78;2.72;;;19.00;99.90;;;;;;5052251;28;20459;-67
2023/07/29 05:07:35;;;;;;;6.45;1.90;;;19.00;99.90;;;;;;5052982;28;20497;-66
2023/07/29 05:10:01;;;;;;;7.65;2.67;;;19.10;99.90;;;;;;5052607;28;20037;-67
2023/07/29 05:12:26;;;;;;;7.85;2.60;;;19.10;99.90;;;;;;5052461;28;20033;-67
2023/07/29 05:14:52;;;;;;;7.60;2.15;;;19.20;99.90;;;;;;5052911;28;20036;-67
2023/07/29 05:17:17;;;;;;;6.53;1.80;;;19.20;99.90;;;;;;5052995;28;20108;-68
2023/07/29 05:19:43;;;;;;;12.60;2.22;;;19.30;99.90;;;;;;5051408;28;20025;-68
2023/07/29 05:22:10;;;;;;;10.32;2.40;;;19.30;99.90;;;;;;5052828;28;20029;-68
2023/07/29 05:24:35;;;;;;;9.82;2.70;;;19.30;99.90;;;;;;5052558;28;20037;-68
2023/07/29 05:27:01;;;;;;;9.77;2.58;;;19.30;99.90;;;;;;5050690;28;20098;-67
2023/07/29 05:29:26;;;;;;;11.30;2.90;;;19.30;99.90;;;;;;5051636;28;20105;-67
2023/07/29 05:31:52;;;;;;;9.48;2.58;;;19.30;99.90;;;;;;5051104;28;20108;-67
2023/07/29 05:34:17;;;;;;;10.77;2.47;;;19.30;99.90;;;;;;5052190;28;20038;-67
2023/07/29 05:36:43;;;;;;;12.43;2.47;;;19.30;99.90;;;;;;5052556;28;20092;-67
2023/07/29 05:39:09;;;;;;;12.82;2.60;;;19.30;99.90;;;;;;5052308;28;20043;-67
2023/07/29 05:41:34;;;;;;;10.25;2.60;;;19.30;99.90;;;;;;5052081;28;20484;-66
2023/07/29 05:44:00;;;;;;;9.75;2.38;;;19.40;99.90;;;;;;5051082;28;20024;-67
2023/07/29 05:46:26;;;;;;;12.55;2.67;;;19.50;99.90;;;;;;5052600;28;20098;-67
2023/07/29 05:48:51;;;;;;;12.52;2.55;;;19.70;99.90;;;;;;5051665;28;20163;-67
2023/07/29 05:51:17;;;;;;;11.77;2.53;;;19.80;99.90;;;;;;5050909;28;20104;-67
2023/07/29 05:53:42;;;;;;;15.90;2.50;;;20.00;99.90;;;;;;5051062;28;20055;-67
2023/07/29 05:56:10;;;;;;;13.57;2.63;;;20.00;99.90;;;;;;5052281;28;20064;-67
2023/07/29 05:58:35;;;;;;;10.98;2.50;;;20.20;99.90;;;;;;5051122;28;20029;-68
2023/07/29 06:01:01;;;;;;;12.10;3.40;;;20.20;99.90;;;;;;5052330;28;20112;-67
2023/07/29 06:03:26;;;;;;;8.95;2.20;;;20.20;99.90;;;;;;5050900;28;20025;-67
2023/07/29 06:05:52;;;;;;;9.57;2.28;;;20.20;99.90;;;;;;5052236;28;20040;-67
2023/07/29 06:08:18;;;;;;;8.75;2.30;;;20.20;99.90;;;;;;5051935;28;20369;-67
2023/07/29 06:10:43;;;;;;;8.20;2.38;;;20.20;99.90;;;;;;5052044;28;20021;-67
2023/07/29 06:13:09;;;;;;;7.60;2.05;;;20.20;99.90;;;;;;5052336;28;20024;-67
2023/07/29 06:15:34;;;;;;;9.43;2.10;;;20.10;99.90;;;;;;5052322;28;20032;-67
2023/07/29 06:18:00;;;;;;;8.55;2.83;;;20.00;99.90;;;;;;5055157;28;20029;-68
2023/07/29 06:20:26;;;;;;;12.43;2.60;;;20.00;99.90;;;;;;5056251;28;20032;-68
2023/07/29 06:22:51;;;;;;;9.30;2.55;;;20.10;99.90;;;;;;5055685;28;20116;-68
2023/07/29 06:25:17;;;;;;;11.90;2.58;;;20.20;99.90;;;;;;5056014;28;20439;-67
2023/07/29 06:27:42;;;;;;;11.50;2.65;;;20.20;99.90;;;;;;5056002;28;20105;-67
2023/07/29 06:30:08;;;;;;;9.40;2.20;;;20.20;99.90;;;;;;5055927;28;20029;-67
2023/07/29 06:32:34;;;;;;;10.48;2.25;;;20.20;99.90;;;;;;5055910;28;20071;-66
2023/07/29 06:35:00;;;;;;;9.77;2.42;;;20.20;99.90;;;;;;5055435;28;20426;-67
2023/07/29 06:37:25;;;;;;;10.10;2.33;;;20.10;99.90;;;;;;5055729;28;20036;-67
2023/07/29 06:39:51;;;;;;;9.30;3.03;;;20.00;99.90;;;;;;5055181;28;20021;-66
2023/07/29 06:42:16;;;;;;;8.73;2.35;;;20.00;99.90;;;;;;5056218;28;20547;-67
2023/07/29 06:44:42;;;;;;;9.75;2.63;;;20.00;99.90;;;;;;5054785;28;20558;-68
2023/07/29 06:47:08;;;;;;;8.98;2.30;;;20.10;99.90;;;;;;5056104;28;20035;-68
2023/07/29 06:49:33;;;;;;;7.70;2.20;;;20.30;99.90;;;;;;5055452;28;20040;-67
2023/07/29 06:51:59;;;;;;;7.00;2.08;;;20.60;99.90;;;;;;5055555;28;20078;-68
2023/07/29 06:54:28;;;;;;;8.88;2.10;;;21.00;99.90;;;;;;5055847;28;20037;-67
2023/07/29 06:56:54;;;;;;;9.95;1.92;;;21.20;99.90;;;;;;5055202;28;20476;-68
2023/07/29 06:59:19;;;;;;;5.75;1.80;;;21.50;99.90;;;;;;5055590;28;20108;-68
2023/07/29 07:01:46;;;;;;;8.13;1.83;;;21.40;99.90;;;;;;5055631;28;20414;-67
2023/07/29 07:04:11;;;;;;;8.65;2.10;;;21.30;99.90;;;;;;5055368;28;20071;-67
2023/07/29 07:06:37;;;;;;;9.55;2.20;;;21.20;99.90;;;;;;5055062;28;20076;-67
2023/07/29 07:09:03;;;;;;;10.10;2.53;;;21.10;99.90;;;;;;5053832;28;20033;-67
2023/07/29 07:11:28;;;;;;;11.10;1.92;;;21.10;99.90;;;;;;5055209;28;20526;-67
2023/07/29 07:13:54;;;;;;;8.35;1.90;;;21.00;99.90;;;;;;5055189;28;20036;-67
2023/07/29 07:16:19;;;;;;;9.70;2.40;;;21.10;99.90;;;;;;5055057;28;20024;-67
2023/07/29 07:18:45;;;;;;;6.18;2.03;;;21.20;99.90;;;;;;5054756;28;20290;-67
2023/07/29 07:21:10;;;;;;;11.25;2.50;;;21.30;99.90;;;;;;5054420;28;20485;-67
2023/07/29 07:23:36;;;;;;;8.30;2.00;;;21.40;99.90;;;;;;5055227;28;20461;-67
2023/07/29 07:26:02;;;;;;;9.45;2.17;;;21.40;99.90;;;;;;5055078;28;20037;-67
2023/07/29 07:28:28;;;;;;;12.50;2.40;;;21.30;99.90;;;;;;5053326;28;20025;-67
2023/07/29 07:30:55;;;;;;;9.45;2.45;;;21.20;99.90;;;;;;5063393;28;20110;-68
2023/07/29 07:33:21;;;;;;;7.50;1.58;;;21.50;99.90;;;;;;5067782;28;20083;-67
2023/07/29 07:35:47;;;;;;;10.85;2.42;;;22.00;99.90;;;;;;5074288;28;20042;-68
2023/07/29 07:38:12;;;;;;;9.63;2.20;;;22.00;99.90;;;;;;5055485;28;20036;-67
2023/07/29 07:40:38;;;;;;;9.43;2.00;;;22.10;99.90;;;;;;5054409;28;20029;-67
2023/07/29 07:43:03;;;;;;;8.32;2.00;;;22.00;99.90;;;;;;5054135;28;20107;-67
2023/07/29 07:45:29;;;;;;;8.77;1.85;;;21.80;99.90;;;;;;5061305;28;20044;-67
2023/07/29 07:47:55;;;;;;;6.80;2.00;;;21.60;99.90;;;;;;5074259;28;20491;-67
2023/07/29 07:50:21;;;;;;;19.77;4.78;;;21.40;99.90;;;;;;5074025;28;20036;-67
2023/07/29 07:52:46;;;;;;;7.60;1.63;;;21.20;99.90;;;;;;5074365;28;20029;-67
2023/07/29 07:55:12;;;;;;;7.35;1.98;;;21.00;99.90;;;;;;5074261;28;20032;-67
2023/07/29 07:57:37;;;;;;;9.75;2.65;;;20.80;99.90;;;;;;5074281;28;20028;-68
2023/07/29 08:00:04;;;;;;;10.68;2.92;;;20.70;99.90;;;;;;5074476;28;20040;-67
2023/07/29 08:02:30;;;;;;;7.07;2.10;;;20.70;99.90;;;;;;5067322;28;20108;-67
2023/07/29 08:04:55;;;;;;;8.63;2.15;;;20.70;99.90;;;;;;5053090;28;20121;-66
2023/07/29 08:07:21;;;;;;;6.43;2.47;;;20.90;99.90;;;;;;5054040;28;20025;-67
2023/07/29 08:09:47;;;;;;;9.75;2.75;;;21.10;99.90;;;;;;5054196;28;20150;-67
2023/07/29 08:12:12;;;;;;;13.93;2.80;;;21.30;99.90;;;;;;5053789;28;20032;-67
2023/07/29 08:14:38;;;;;;;8.88;2.30;;;21.50;99.90;;;;;;5053888;28;20790;-67
2023/07/29 08:17:04;;;;;;;8.68;2.42;;;21.40;99.90;;;;;;5053320;28;20086;-67
2023/07/29 08:19:30;;;;;;;10.63;3.00;;;21.20;99.90;;;;;;5053081;28;20025;-68
2023/07/29 08:21:55;;;;;;;12.18;2.80;;;21.10;99.90;;;;;;5053141;28;20044;-67
2023/07/29 08:24:21;;;;;;;14.38;3.10;;;21.10;99.90;;;;;;5053164;28;20033;-67
2023/07/29 08:26:46;;;;;;;11.85;3.42;;;21.00;99.90;;;;;;5053287;28;20080;-67
2023/07/29 08:29:12;;;;;;;11.02;3.45;;;20.90;99.90;;;;;;5053406;28;20029;-68
2023/07/29 08:31:38;;;;;;;11.25;2.72;;;20.90;99.90;;;;;;5053501;28;20136;-67
2023/07/29 08:34:04;;;;;;;12.95;2.65;;;20.90;99.90;;;;;;5053313;28;20025;-67
2023/07/29 08:36:29;;;;;;;14.38;2.78;;;21.10;99.90;;;;;;5053634;28;20040;-67
2023/07/29 08:38:55;;;;;;;11.75;3.00;;;21.30;99.90;;;;;;5053348;28;20088;-68
2023/07/29 08:41:37;;;;;;;8.02;2.88;;;22.20;99.90;;;;;;5053076;28;20025;-67
2023/07/29 08:44:18;;;;;;;15.68;3.55;;;22.80;99.90;;;;;;5051464;28;20029;-66
2023/07/29 08:46:43;;;;;;;6.72;2.83;;;23.00;99.90;;;;;;5053000;28;20552;-66
2023/07/29 08:49:13;;;;;;;10.18;3.05;;;22.90;99.90;;;;;;5053157;28;20124;-66
2023/07/29 08:51:41;;;;;;;11.35;2.90;;;22.80;99.90;;;;;;5053470;28;20025;-66
2023/07/29 08:54:07;;;;;;;9.90;2.40;;;22.60;99.90;;;;;;5053394;28;20040;-66
2023/07/29 08:56:33;;;;;;;10.25;2.53;;;22.30;99.90;;;;;;5052982;28;20024;-67
2023/07/29 08:59:01;;;;;;;12.20;4.05;;;22.00;99.90;;;;;;5052638;28;20147;-67
2023/07/29 09:01:27;;;;;;;13.30;5.60;;;21.70;99.90;;;;;;5053003;28;20037;-67
2023/07/29 09:03:53;;;;;;;15.77;5.53;;;21.50;99.90;;;;;;5053068;28;20118;-67
2023/07/29 09:06:21;;;;;;;11.93;4.22;;;21.50;99.90;;;;;;5051278;28;20127;-67
2023/07/29 09:08:48;;;;;;;13.52;4.22;;;21.40;99.90;;;;;;5051160;28;20055;-69
2023/07/29 09:11:17;;;;;;;18.23;5.90;;;21.40;99.90;;;;;;5052872;28;20033;-67
2023/07/29 09:13:43;;;;;;;11.18;4.22;;;21.30;99.90;;;;;;5052589;28;20028;-67
2023/07/29 09:16:09;;;;;;;11.70;4.40;;;21.10;99.90;;;;;;5052214;28;20116;-67
2023/07/29 09:18:35;;;;;;;14.20;4.60;;;21.10;99.90;;;;;;5052546;28;20108;-67
2023/07/29 09:21:01;;;;;;;11.20;3.88;;;21.10;99.90;;;;;;5052135;28;20417;-67
2023/07/29 09:23:27;;;;;;;14.60;3.75;;;21.30;99.90;;;;;;5051986;28;20044;-68
2023/07/29 09:26:02;;;;;;;11.98;3.05;;;21.50;99.90;;;;;;5052344;28;20123;-67
2023/07/29 09:28:36;;;;;;;13.77;3.08;;;22.20;99.90;;;;;;5050406;28;20052;-67
2023/07/29 09:31:02;;;;;;;13.98;4.90;;;22.80;99.90;;;;;;5052850;28;20036;-68
2023/07/29 09:33:29;;;;;;;12.73;3.25;;;23.40;99.90;;;;;;5052677;28;20044;-68
2023/07/29 09:35:54;;;;;;;11.13;3.47;;;23.60;99.90;;;;;;5052729;28;20037;-68
2023/07/29 09:38:27;;;;;;;9.57;3.60;;;23.50;99.90;;;;;;5052367;28;20025;-68
2023/07/29 09:40:55;;;;;;;21.50;5.95;;;23.60;99.90;;;;;;5052192;28;20460;-69
2023/07/29 09:43:25;;;;;;;10.40;4.05;;;23.70;99.90;;;;;;5052529;28;20448;-67
2023/07/29 09:45:52;;;;;;;12.63;4.93;;;23.90;99.90;;;;;;5052057;28;20147;-67
2023/07/29 09:48:22;;;;;;;15.63;5.05;;;24.00;99.90;;;;;;5052340;28;20078;-67
2023/07/29 09:50:48;;;;;;;12.02;4.55;;;23.90;99.90;;;;;;5052195;28;20025;-68
2023/07/29 09:53:14;;;;;;;10.20;3.17;;;24.10;99.90;;;;;;5051343;28;20040;-66
2023/07/29 09:55:45;;;;;;;16.30;6.63;;;24.30;99.90;;;;;;5052392;28;20025;-67
2023/07/29 09:58:11;;;;;;;10.03;3.20;;;24.20;99.90;;;;;;5052460;28;20465;-67
2023/07/29 10:00:38;;;;;;;15.73;4.22;;;23.90;99.90;;;;;;5052301;28;20273;-67
2023/07/29 10:03:04;;;;;;;12.30;4.55;;;23.60;99.90;;;;;;5052056;28;20057;-68
2023/07/29 10:05:30;;;;;;;11.15;4.97;;;23.10;99.90;;;;;;5052283;28;20115;-68
2023/07/29 10:07:56;;;;;;;13.45;4.85;;;22.70;99.90;;;;;;5063682;28;20032;-67
2023/07/29 10:10:22;;;;;;;12.25;4.30;;;22.40;99.90;;;;;;5071989;28;20445;-66
2023/07/29 10:12:49;;;;;;;12.45;4.00;;;22.00;99.90;;;;;;5071852;28;20033;-66
2023/07/29 10:15:15;;;;;;;11.95;4.47;;;21.70;99.90;;;;;;5072015;28;20032;-66
2023/07/29 10:17:41;;;;;;;9.95;3.78;;;21.60;99.90;;;;;;5071752;28;20029;-66
2023/07/29 10:20:09;;;;;;;11.93;3.30;;;21.70;99.90;;;;;;5071886;28;20068;-67
2023/07/29 10:22:43;;;;;;;13.55;3.92;;;21.50;99.90;;;;;;5071328;28;20054;-66
2023/07/29 10:25:22;;;;;;;12.07;3.35;;;21.40;99.90;;;;;;5071835;28;20041;-67
2023/07/29 10:28:01;;;;;;;14.98;4.50;;;21.30;99.90;;;;;;5072082;28;20025;-67
2023/07/29 10:30:28;;;;;;;14.07;3.20;;;21.20;99.90;;;;;;5072634;28;20029;-67
2023/07/29 10:32:57;;;;;;;10.88;3.53;;;21.10;99.90;;;;;;5072067;28;20055;-67
2023/07/29 10:35:23;;;;;;;11.88;3.80;;;21.10;99.90;;;;;;5071149;28;20036;-67
2023/07/29 10:37:50;;;;;;;14.68;5.35;;;21.10;99.90;;;;;;5072159;28;20093;-66
2023/07/29 10:40:17;;;;;;;9.23;3.72;;;21.20;99.90;;;;;;5071826;28;20033;-66
2023/07/29 10:43:04;;;;;;;6.10;3.08;;;21.30;99.90;;;;;;5071840;28;20052;-67
2023/07/29 10:45:40;;;;;;;13.38;5.95;;;21.60;99.90;;;;;;5071296;28;20056;-67
2023/07/29 10:48:13;;;;;;;11.15;3.65;;;22.60;99.90;;;;;;5071888;28;20039;-67
2023/07/29 10:50:39;;;;;;;15.30;4.35;;;23.20;99.90;;;;;;5050523;28;20053;-67
2023/07/29 10:53:04;;;;;;;10.32;3.95;;;23.50;99.90;;;;;;5051789;28;20086;-66
2023/07/29 10:55:38;;;;;;;11.63;3.33;;;23.80;99.90;;;;;;5049978;28;20021;-66
2023/07/29 10:58:17;;;;;;;7.90;3.00;;;24.40;99.90;;;;;;5051366;28;20493;-66
2023/07/29 11:00:45;;;;;;;11.55;5.05;;;25.00;99.90;;;;;;5051632;28;20037;-67
2023/07/29 11:03:16;;;;;;;14.48;6.93;;;26.10;99.90;;;;;;5051858;28;20056;-66
2023/07/29 11:06:04;;;;;;;9.52;3.90;;;26.60;99.90;;;;;;5055637;28;20044;-67
2023/07/29 11:08:31;;;;;;;6.97;3.58;;;26.60;99.90;;;;;;5055413;28;20065;-66
2023/07/29 11:11:07;;;;;;;10.40;3.47;;;26.70;99.90;;;;;;5055278;28;20033;-67
2023/07/29 11:13:37;;;;;;;9.20;3.30;;;26.30;99.90;;;;;;5055151;28;20029;-67
2023/07/29 11:16:03;;;;;;;9.45;4.47;;;25.90;99.90;;;;;;5055630;28;20056;-65
2023/07/29 11:18:36;;;;;;;9.95;4.38;;;25.80;99.90;;;;;;5054135;28;20380;-67
2023/07/29 11:21:04;;;;;;;8.45;3.00;;;25.40;99.90;;;;;;5054757;28;20108;-66
2023/07/29 11:23:35;;;;;;;14.15;4.10;;;25.30;99.90;;;;;;5054743;28;20031;-67
2023/07/29 11:26:03;;;;;;;8.23;2.90;;;25.50;99.90;;;;;;5054849;28;20083;-67
2023/07/29 11:28:29;;;;;;;9.45;3.78;;;25.60;99.90;;;;;;5055017;28;20029;-67
2023/07/29 11:30:58;;;;;;;11.25;2.75;;;25.70;99.90;;;;;;5054895;28;20431;-67
2023/07/29 11:33:26;;;;;;;10.13;3.25;;;26.00;99.90;;;;;;5054466;28;20039;-67
2023/07/29 11:35:52;;;;;;;8.13;2.70;;;26.00;99.90;;;;;;5054764;28;20025;-66
2023/07/29 11:38:20;;;;;;;8.48;2.88;;;25.70;99.90;;;;;;5054404;28;20025;-66
2023/07/29 11:41:02;;;;;;;6.22;1.95;;;25.30;99.90;;;;;;5054706;28;20504;-66
2023/07/29 11:43:27;;;;;;;5.57;2.00;;;25.10;99.90;;;;;;5054803;28;20099;-66
2023/07/29 11:45:54;;;;;;;5.70;1.92;;;25.20;99.90;;;;;;5054216;28;20049;-67
2023/07/29 11:48:31;;;;;;;4.78;1.70;;;25.20;99.90;;;;;;5054582;28;20036;-67
2023/07/29 11:50:57;;;;;;;7.43;2.70;;;25.20;99.90;;;;;;5054486;28;20037;-66
2023/07/29 11:53:27;;;;;;;6.15;2.10;;;25.20;99.90;;;;;;5054055;28;20039;-66
2023/07/29 11:55:53;;;;;;;6.30;1.90;;;25.40;99.90;;;;;;5054263;28;20024;-66
2023/07/29 11:58:20;;;;;;;4.22;1.02;;;25.60;99.90;;;;;;5053947;28;20116;-67
2023/07/29 12:00:46;;;;;;;3.65;1.48;;;25.90;99.90;;;;;;5054520;28;20079;-66
2023/07/29 12:03:12;;;;;;;4.10;2.33;;;26.40;99.90;;;;;;5054066;28;20029;-67
2023/07/29 12:05:38;;;;;;;3.28;1.27;;;26.90;99.90;;;;;;5052228;28;20064;-67
2023/07/29 12:08:04;;;;;;;3.83;1.35;;;27.20;99.90;;;;;;5054025;28;20060;-67
2023/07/29 12:10:30;;;;;;;7.03;2.22;;;27.70;99.90;;;;;;5053791;28;20136;-66
2023/07/29 12:12:55;;;;;;;3.45;1.20;;;28.40;99.80;;;;;;5053590;28;20032;-67
2023/07/29 12:15:29;;;;;;;4.47;1.88;;;29.80;98.50;;;;;;5053461;28;20104;-67
2023/07/29 12:17:58;;;;;;;5.35;1.20;;;30.50;97.30;;;;;;5053602;28;20033;-67
2023/07/29 12:20:25;;;;;;;3.30;1.65;;;30.60;97.10;;;;;;5054001;28;20028;-67
2023/07/29 12:22:55;;;;;;;2.10;1.30;;;30.30;96.50;;;;;;5053514;28;20052;-67
2023/07/29 12:25:21;;;;;;;3.50;1.10;;;30.10;96.70;;;;;;5048286;28;20044;-67
2023/07/29 12:27:47;;;;;;;2.92;0.80;;;29.90;97.30;;;;;;5053574;28;20045;-67
2023/07/29 12:30:13;;;;;;;2.38;1.00;;;29.90;96.70;;;;;;5052428;28;20595;-67
2023/07/29 12:32:46;;;;;;;3.05;1.02;;;29.90;96.30;;;;;;5051287;28;20107;-67
2023/07/29 12:35:12;;;;;;;3.35;0.90;;;29.70;96.50;;;;;;5052623;28;20036;-67
2023/07/29 12:37:39;;;;;;;6.80;1.30;;;29.50;96.80;;;;;;5052126;28;20033;-67
2023/07/29 12:40:05;;;;;;;3.53;1.08;;;29.10;97.50;;;;;;5052930;28;20480;-67